createdAt,value
2023-04-23T00:02:12.305Z,15.50
2023-04-23T00:04:54.346Z,15.44
2023-04-23T00:07:27.367Z,15.39
2023-04-23T00:10:01.652Z,15.37
2023-04-23T00:12:34.199Z,15.25
2023-04-23T00:15:07.761Z,15.33
2023-04-23T00:17:40.157Z,15.26
2023-04-23T00:20:12.513Z,15.12
2023-04-23T00:22:47.814Z,15.00
2023-04-23T00:25:20.164Z,14.95
2023-04-23T00:27:52.359Z,14.89
2023-04-23T00:30:24.497Z,14.86
2023-04-23T00:32:56.712Z,14.88
2023-04-23T00:35:28.920Z,14.86
2023-04-23T00:38:01.160Z,14.89
2023-04-23T00:40:33.798Z,14.89
2023-04-23T00:43:07.552Z,14.82
2023-04-23T00:45:40.062Z,14.86
2023-04-23T00:48:12.645Z,14.84
2023-04-23T00:50:44.922Z,14.71
2023-04-23T00:53:17.124Z,14.58
2023-04-23T00:55:49.262Z,14.51
2023-04-23T00:58:22.124Z,14.56
2023-04-23T01:00:54.609Z,14.50
2023-04-23T01:03:30.045Z,14.48
2023-04-23T01:06:03.446Z,14.39
2023-04-23T01:08:36.527Z,14.34
2023-04-23T01:11:14.755Z,14.30
2023-04-23T01:13:46.981Z,14.32
2023-04-23T01:16:19.239Z,14.31
2023-04-23T01:18:51.863Z,14.23
2023-04-23T01:21:26.185Z,14.24
2023-04-23T01:23:58.612Z,14.21
2023-04-23T01:26:30.933Z,14.16
2023-04-23T01:29:03.857Z,14.19
2023-04-23T01:31:37.244Z,14.17
2023-04-23T01:34:09.766Z,14.14
2023-04-23T01:36:42.670Z,14.11
2023-04-23T01:39:15.355Z,14.07
2023-04-23T01:41:48.568Z,14.09
2023-04-23T01:44:20.828Z,14.08
2023-04-23T01:46:53.752Z,14.03
2023-04-23T01:49:25.979Z,14.02
2023-04-23T01:51:58.156Z,14.01
2023-04-23T01:54:30.313Z,14.06
2023-04-23T01:57:03.176Z,14.06
2023-04-23T01:59:35.228Z,14.03
2023-04-23T02:02:14.059Z,13.95
2023-04-23T02:04:48.015Z,13.98
2023-04-23T02:07:20.442Z,13.94
2023-04-23T02:09:52.550Z,13.90
2023-04-23T02:12:26.126Z,13.77
2023-04-23T02:14:58.251Z,13.71
2023-04-23T02:17:31.256Z,13.64
2023-04-23T02:20:04.067Z,13.58
2023-04-23T02:22:43.750Z,13.55
2023-04-23T02:25:18.090Z,13.54
2023-04-23T02:27:50.830Z,13.48
2023-04-23T02:30:23.394Z,13.37
2023-04-23T02:32:55.987Z,13.27
2023-04-23T02:35:28.241Z,13.25
2023-04-23T02:38:00.434Z,13.18
2023-04-23T02:40:32.620Z,13.17
2023-04-23T02:43:05.022Z,13.23
2023-04-23T02:45:37.232Z,13.26
2023-04-23T02:48:09.461Z,13.18
2023-04-23T02:50:42.757Z,13.21
2023-04-23T02:53:15.186Z,13.08
2023-04-23T02:55:47.284Z,13.06
2023-04-23T02:58:19.733Z,13.09
2023-04-23T03:00:51.963Z,13.09
2023-04-23T03:03:26.940Z,13.07
2023-04-23T03:06:01.426Z,13.05
2023-04-23T03:08:33.674Z,13.05
2023-04-23T03:11:06.172Z,13.07
2023-04-23T03:13:38.594Z,13.14
2023-04-23T03:16:11.723Z,13.05
2023-04-23T03:18:44.029Z,13.04
2023-04-23T03:21:16.278Z,12.97
2023-04-23T03:23:48.453Z,12.92
2023-04-23T03:26:20.593Z,12.75
2023-04-23T03:28:52.805Z,12.77
2023-04-23T03:31:27.789Z,12.79
2023-04-23T03:33:59.909Z,12.77
2023-04-23T03:36:32.631Z,12.77
2023-04-23T03:39:05.188Z,12.80
2023-04-23T03:41:37.252Z,12.79
2023-04-23T03:44:12.554Z,12.78
2023-04-23T03:46:44.635Z,12.70
2023-04-23T03:49:17.457Z,12.72
2023-04-23T03:51:49.734Z,12.76
2023-04-23T03:54:23.480Z,12.76
2023-04-23T03:56:55.728Z,12.72
2023-04-23T03:59:27.921Z,12.62
2023-04-23T04:02:00.283Z,12.45
2023-04-23T04:04:33.759Z,12.42
2023-04-23T04:07:07.836Z,12.43
2023-04-23T04:09:40.031Z,12.42
2023-04-23T04:12:12.395Z,12.43
2023-04-23T04:14:44.783Z,12.48
2023-04-23T04:17:17.346Z,12.47
2023-04-23T04:19:49.444Z,12.49
2023-04-23T04:22:21.548Z,12.47
2023-04-23T04:24:54.399Z,12.43
2023-04-23T04:27:26.577Z,12.44
2023-04-23T04:29:58.864Z,12.30
2023-04-23T04:32:31.153Z,12.32
2023-04-23T04:35:04.203Z,12.28
2023-04-23T04:37:36.513Z,12.23
2023-04-23T04:40:11.786Z,12.26
2023-04-23T04:42:43.932Z,12.25
2023-04-23T04:45:17.262Z,12.34
2023-04-23T04:47:49.386Z,12.31
2023-04-23T04:50:21.663Z,12.31
2023-04-23T04:52:53.705Z,12.26
2023-04-23T04:55:26.084Z,12.35
2023-04-23T04:57:58.489Z,12.36
2023-04-23T05:00:31.022Z,12.48
2023-04-23T05:03:06.877Z,12.50
2023-04-23T05:05:39.187Z,12.57
2023-04-23T05:08:13.423Z,12.54
2023-04-23T05:10:46.067Z,12.32
2023-04-23T05:13:18.294Z,12.15
2023-04-23T05:15:50.988Z,12.24
2023-04-23T05:18:23.374Z,12.13
2023-04-23T05:20:56.422Z,12.14
2023-04-23T05:23:29.304Z,12.26
2023-04-23T05:26:03.810Z,12.34
2023-04-23T05:28:36.495Z,12.42
2023-04-23T05:31:08.963Z,12.52
2023-04-23T05:33:49.176Z,12.45
2023-04-23T05:36:23.382Z,12.31
2023-04-23T05:38:55.707Z,12.27
2023-04-23T05:41:27.846Z,12.34
2023-04-23T05:44:00.040Z,12.31
2023-04-23T05:46:32.148Z,12.29
2023-04-23T05:49:04.485Z,12.29
2023-04-23T05:51:36.753Z,12.31
2023-04-23T05:54:09.107Z,12.32
2023-04-23T05:56:41.287Z,12.44
2023-04-23T05:59:16.413Z,12.49
2023-04-23T06:01:49.856Z,12.31
2023-04-23T06:04:22.091Z,12.34
2023-04-23T06:06:54.933Z,12.29
2023-04-23T06:09:27.071Z,12.40
2023-04-23T06:11:59.651Z,12.42
2023-04-23T06:14:31.913Z,12.34
2023-04-23T06:17:04.240Z,12.30
2023-04-23T06:19:38.314Z,12.46
2023-04-23T06:22:10.658Z,12.54
2023-04-23T06:24:43.057Z,12.56
2023-04-23T06:27:15.823Z,12.56
2023-04-23T06:29:47.909Z,12.46
2023-04-23T06:32:21.002Z,12.46
2023-04-23T06:35:00.898Z,12.56
2023-04-23T06:37:33.873Z,12.34
2023-04-23T06:40:07.395Z,12.42
2023-04-23T06:42:39.598Z,12.32
2023-04-23T06:45:12.283Z,12.34
2023-04-23T06:47:44.574Z,12.43
2023-04-23T06:50:17.021Z,12.57
2023-04-23T06:52:49.583Z,12.73
2023-04-23T06:55:26.444Z,12.67
2023-04-23T06:58:02.177Z,12.75
2023-04-23T07:00:34.612Z,12.64
2023-04-23T07:03:07.074Z,12.74
2023-04-23T07:05:42.724Z,12.86
2023-04-23T07:08:14.990Z,12.85
2023-04-23T07:10:47.575Z,12.63
2023-04-23T07:13:19.932Z,12.57
2023-04-23T07:15:52.234Z,12.64
2023-04-23T07:18:24.317Z,12.59
2023-04-23T07:20:59.508Z,12.76
2023-04-23T07:23:32.839Z,12.76
2023-04-23T07:26:05.307Z,12.82
2023-04-23T07:28:39.596Z,12.86
2023-04-23T07:31:12.160Z,12.87
2023-04-23T07:33:44.471Z,13.00
2023-04-23T07:36:16.779Z,13.17
2023-04-23T07:38:48.942Z,13.44
2023-04-23T07:41:21.341Z,13.76
2023-04-23T07:43:53.648Z,14.05
2023-04-23T07:46:26.250Z,14.46
2023-04-23T07:48:58.471Z,14.96
2023-04-23T07:51:32.145Z,15.37
2023-04-23T07:54:04.636Z,16.07
2023-04-23T07:56:37.278Z,16.72
2023-04-23T07:59:10.151Z,16.86
2023-04-23T08:01:42.468Z,17.56
2023-04-23T08:04:18.317Z,18.27
2023-04-23T08:06:50.810Z,18.47
2023-04-23T08:09:23.066Z,18.22
2023-04-23T08:11:55.615Z,18.75
2023-04-23T08:14:27.758Z,19.06
2023-04-23T08:16:59.899Z,19.65
2023-04-23T08:19:35.715Z,20.09
2023-04-23T08:22:08.030Z,20.14
2023-04-23T08:24:40.439Z,19.97
2023-04-23T08:27:12.905Z,20.47
2023-04-23T08:29:45.109Z,20.81
2023-04-23T08:32:17.427Z,20.86
2023-04-23T08:34:49.811Z,20.68
2023-04-23T08:37:30.354Z,20.69
2023-04-23T08:40:05.399Z,20.73
2023-04-23T08:43:35.703Z,20.60
2023-04-23T08:46:12.626Z,21.77
2023-04-23T08:48:52.640Z,21.88
2023-04-23T08:51:26.937Z,22.54
2023-04-23T08:54:04.330Z,22.80
2023-04-23T08:56:37.714Z,23.58
2023-04-23T08:59:10.559Z,23.47
2023-04-23T09:01:45.062Z,23.78
2023-04-23T09:04:17.400Z,24.18
2023-04-23T09:06:50.676Z,24.24
2023-04-23T09:09:24.077Z,24.08
2023-04-23T09:11:58.067Z,24.63
2023-04-23T09:14:30.428Z,24.82
2023-04-23T09:17:05.868Z,25.01
2023-04-23T09:19:40.500Z,25.39
2023-04-23T09:22:13.369Z,25.59
2023-04-23T09:24:45.599Z,25.54
2023-04-23T09:27:26.055Z,25.20
2023-04-23T09:29:59.867Z,26.25
2023-04-23T09:32:36.854Z,26.41
2023-04-23T09:35:14.121Z,26.45
2023-04-23T09:37:52.103Z,26.09
2023-04-23T09:40:28.458Z,25.14
2023-04-23T09:43:05.254Z,24.97
2023-04-23T09:45:38.200Z,25.01
2023-04-23T09:48:10.747Z,25.36
2023-04-23T09:50:43.943Z,25.80
2023-04-23T09:53:16.203Z,26.02
2023-04-23T09:55:48.380Z,26.51
2023-04-23T09:58:27.620Z,26.46
2023-04-23T10:01:10.895Z,26.18
2023-04-23T10:03:44.495Z,26.31
2023-04-23T10:06:25.476Z,26.99
2023-04-23T10:09:10.291Z,27.30
2023-04-23T10:11:43.370Z,26.72
2023-04-23T10:14:15.830Z,26.29
2023-04-23T10:16:54.501Z,25.73
2023-04-23T10:19:29.213Z,24.84
2023-04-23T10:22:18.623Z,24.79
2023-04-23T10:24:59.024Z,24.36
2023-04-23T10:27:40.390Z,24.86
2023-04-23T10:30:17.456Z,25.74
2023-04-23T10:32:51.105Z,26.11
2023-04-23T10:35:23.593Z,25.36
2023-04-23T10:37:56.324Z,25.26
2023-04-23T10:40:33.016Z,26.14
2023-04-23T10:43:08.124Z,27.26
2023-04-23T10:45:44.507Z,27.48
2023-04-23T10:48:17.270Z,28.25
2023-04-23T10:51:14.607Z,28.59
2023-04-23T10:53:52.686Z,28.01
2023-04-23T10:56:28.377Z,26.13
2023-04-23T10:59:31.135Z,26.81
2023-04-23T11:02:13.987Z,26.83
2023-04-23T11:04:57.971Z,26.39
2023-04-23T11:07:34.466Z,25.86
2023-04-23T11:10:16.259Z,25.13
2023-04-23T11:12:48.566Z,24.59
2023-04-23T11:15:21.209Z,25.05
2023-04-23T11:17:54.498Z,26.32
2023-04-23T11:20:30.848Z,27.54
2023-04-23T11:23:12.601Z,27.02
2023-04-23T11:26:25.192Z,28.20
2023-04-23T11:32:14.527Z,29.33
2023-04-23T11:34:54.010Z,28.11
2023-04-23T11:37:30.504Z,27.19
2023-04-23T13:00:33.451Z,20.54
2023-04-23T13:20:59.162Z,24.45
2023-04-23T13:39:09.831Z,24.56
2023-04-23T13:41:53.851Z,24.61
2023-04-23T13:49:06.202Z,23.01
2023-04-23T13:51:38.583Z,22.76
2023-04-23T13:57:10.486Z,22.24
2023-04-23T13:59:54.424Z,22.37
2023-04-23T14:02:27.197Z,22.43
2023-04-23T14:05:04.139Z,22.49
2023-04-23T14:07:36.901Z,22.18
2023-04-23T14:10:12.914Z,22.14
2023-04-23T14:12:46.945Z,21.92
2023-04-23T14:15:19.879Z,21.97
2023-04-23T14:17:56.200Z,22.12
2023-04-23T14:20:28.862Z,21.99
2023-04-23T14:23:25.600Z,22.23
2023-04-23T14:26:09.495Z,21.86
2023-04-23T14:28:46.482Z,21.75
2023-04-23T14:31:19.026Z,21.62
2023-04-23T14:33:51.270Z,21.44
2023-04-23T14:36:30.978Z,21.39
2023-04-23T14:39:05.734Z,21.13
2023-04-23T14:41:38.150Z,21.16
2023-04-23T14:44:10.526Z,21.05
2023-04-23T14:46:43.500Z,20.97
2023-04-23T14:49:15.820Z,20.72
2023-04-23T14:51:56.256Z,20.61
2023-04-23T14:54:28.457Z,20.57
2023-04-23T14:57:00.732Z,20.45
2023-04-23T14:59:32.889Z,19.94
2023-04-23T15:02:05.207Z,19.18
2023-04-23T15:05:33.003Z,18.42
2023-04-23T15:08:05.221Z,17.68
2023-04-23T15:10:38.967Z,16.92
2023-04-23T15:13:51.260Z,16.10
2023-04-23T15:19:11.645Z,15.02
2023-04-23T15:21:54.071Z,15.01
2023-04-23T15:24:26.240Z,15.14
2023-04-23T15:27:02.123Z,15.37
2023-04-23T15:29:34.233Z,15.58
2023-04-23T15:32:06.642Z,15.88
2023-04-23T15:34:40.923Z,16.04
2023-04-23T15:37:13.714Z,16.10
2023-04-23T15:39:45.922Z,16.10
2023-04-23T15:42:23.725Z,16.16
2023-04-23T15:44:57.280Z,16.27
2023-04-23T15:47:31.045Z,16.36
2023-04-23T15:50:12.923Z,16.43
2023-04-23T15:52:45.543Z,16.46
2023-04-23T15:55:18.885Z,16.57
2023-04-23T15:57:51.334Z,16.69
2023-04-23T16:00:23.726Z,16.82
2023-04-23T16:02:56.576Z,16.94
2023-04-23T16:05:30.600Z,17.03
2023-04-23T16:08:03.785Z,17.07
2023-04-23T16:10:37.988Z,17.12
2023-04-23T16:13:10.497Z,17.14
2023-04-23T16:15:45.879Z,17.19
2023-04-23T16:18:18.034Z,17.24
2023-04-23T16:20:50.356Z,17.24
2023-04-23T16:23:22.701Z,17.25
2023-04-23T16:25:55.716Z,17.26
2023-04-23T16:28:27.899Z,17.15
2023-04-23T16:31:00.289Z,17.01
2023-04-23T16:33:32.575Z,16.97
2023-04-23T16:36:05.194Z,16.94
2023-04-23T16:38:37.594Z,16.86
2023-04-23T16:41:09.992Z,16.78
2023-04-23T16:43:42.448Z,16.74
2023-04-23T16:49:23.088Z,16.69
2023-04-23T16:51:57.066Z,16.66
2023-04-23T16:55:35.812Z,16.60
2023-04-23T17:02:36.861Z,16.40
2023-04-23T17:05:33.443Z,16.09
2023-04-23T17:08:05.753Z,15.42
2023-04-23T17:10:37.926Z,14.71
2023-04-23T17:13:10.377Z,14.29
2023-04-23T17:15:43.414Z,14.00
2023-04-23T17:18:33.588Z,13.58
2023-04-23T17:21:05.983Z,13.37
2023-04-23T17:23:38.248Z,13.37
2023-04-23T17:26:11.271Z,13.40
2023-04-23T17:28:43.605Z,13.46
2023-04-23T17:31:16.549Z,13.54
2023-04-23T17:33:50.529Z,13.62
2023-04-23T17:36:25.676Z,13.77
2023-04-23T17:38:57.978Z,13.92
2023-04-23T17:41:32.553Z,14.03
2023-04-23T17:44:04.798Z,14.07
2023-04-23T17:46:37.137Z,14.12
2023-04-23T17:49:10.763Z,14.16
2023-04-23T17:51:42.978Z,14.26
2023-04-23T17:54:15.662Z,14.38
2023-04-23T17:56:48.311Z,14.45
2023-04-23T17:59:20.683Z,14.54
2023-04-23T18:01:53.384Z,14.54
2023-04-23T18:04:25.592Z,14.53
2023-04-23T18:06:57.812Z,14.52
2023-04-23T18:09:29.945Z,14.51
2023-04-23T18:12:04.113Z,14.42
2023-04-23T18:14:36.295Z,14.43
2023-04-23T18:17:09.232Z,14.45
2023-04-23T18:19:41.691Z,14.43
2023-04-23T18:22:17.431Z,14.40
2023-04-23T18:24:50.864Z,14.34
2023-04-23T18:27:23.075Z,14.31
2023-04-23T18:29:58.004Z,14.26
2023-04-23T18:32:50.723Z,14.22
2023-04-23T18:35:27.667Z,14.11
2023-04-23T18:42:03.256Z,14.20
2023-04-23T18:44:37.253Z,14.18
2023-04-23T18:47:09.613Z,14.17
2023-04-23T18:49:56.327Z,14.23
2023-04-23T18:52:32.946Z,14.22
2023-04-23T18:55:05.583Z,14.28
2023-04-23T18:57:38.120Z,14.32
2023-04-23T19:00:11.447Z,14.37
2023-04-23T19:02:44.687Z,14.42
2023-04-23T19:05:29.289Z,14.47
2023-04-23T19:08:03.607Z,14.49
2023-04-23T19:10:37.505Z,14.51
2023-04-23T19:13:10.974Z,14.49
2023-04-23T19:15:43.228Z,14.45
2023-04-23T19:18:15.584Z,14.45
2023-04-23T19:20:47.844Z,14.46
2023-04-23T19:23:20.747Z,14.49
2023-04-23T19:25:53.164Z,14.53
2023-04-23T19:28:25.596Z,14.59
2023-04-23T19:30:58.075Z,14.58
2023-04-23T19:33:31.512Z,14.60
2023-04-23T19:36:03.764Z,14.62
2023-04-23T19:38:35.947Z,14.61
2023-04-23T19:41:08.586Z,14.61
2023-04-23T19:43:41.585Z,14.55
2023-04-23T19:46:14.879Z,14.56
2023-04-23T19:48:47.307Z,14.52
2023-04-23T19:51:21.367Z,14.55
2023-04-23T19:53:55.942Z,14.53
2023-04-23T19:56:43.968Z,14.53
2023-04-23T19:59:22.270Z,14.51
2023-04-23T20:05:00.852Z,14.47
2023-04-23T20:14:01.360Z,14.34
2023-04-23T20:17:37.967Z,14.28
2023-04-23T20:20:20.356Z,14.31
2023-04-23T20:24:02.768Z,14.22
2023-04-23T20:26:37.139Z,14.18
2023-04-23T20:29:38.228Z,14.18
2023-04-23T20:32:14.456Z,14.16
2023-04-23T20:34:52.327Z,14.17
2023-04-23T20:37:32.172Z,14.15
2023-04-23T20:40:06.298Z,14.07
2023-04-23T20:42:39.481Z,14.01
2023-04-23T20:45:13.454Z,13.99
2023-04-23T20:47:47.216Z,13.98
2023-04-23T20:50:19.787Z,14.00
2023-04-23T20:52:52.071Z,13.97
2023-04-23T20:55:24.290Z,13.95
2023-04-23T20:57:56.547Z,13.88
2023-04-23T21:00:29.543Z,13.86
2023-04-23T21:03:01.946Z,13.85
2023-04-23T21:05:34.463Z,13.89
2023-04-23T21:08:08.249Z,13.90
2023-04-23T21:10:41.511Z,13.95
2023-04-23T21:13:13.689Z,13.99
2023-04-23T21:15:45.989Z,14.00
2023-04-23T21:18:19.135Z,14.03
2023-04-23T21:20:51.778Z,14.05
2023-04-23T21:23:24.090Z,14.06
2023-04-23T21:25:57.255Z,14.01
2023-04-23T21:28:29.683Z,14.02
2023-04-23T21:31:21.432Z,14.07
2023-04-23T21:33:56.961Z,14.06
2023-04-23T21:36:29.605Z,14.09
2023-04-23T21:39:02.472Z,13.99
2023-04-23T21:41:35.373Z,13.91
2023-04-23T21:44:08.898Z,13.82
2023-04-23T21:46:43.511Z,13.81
2023-04-23T21:49:17.690Z,13.84
2023-04-23T21:51:50.379Z,13.77
2023-04-23T21:54:25.401Z,13.60
2023-04-23T21:56:57.706Z,13.42
2023-04-23T21:59:30.161Z,13.35
2023-04-23T22:02:02.483Z,13.29
2023-04-23T22:04:35.077Z,13.31
2023-04-23T22:07:12.599Z,13.37
2023-04-23T22:09:45.138Z,13.38
2023-04-23T22:12:17.534Z,13.26
2023-04-23T22:14:49.894Z,13.28
2023-04-23T22:17:22.200Z,13.28
2023-04-23T22:19:55.069Z,13.25
2023-04-23T22:22:27.266Z,13.21
2023-04-23T22:24:59.881Z,13.20
2023-04-23T22:27:34.657Z,13.20
2023-04-23T22:30:10.548Z,13.20
2023-04-23T22:32:42.876Z,13.23
2023-04-23T22:35:15.257Z,13.24
2023-04-23T22:37:47.505Z,13.24
2023-04-23T22:40:20.198Z,13.17
2023-04-23T22:42:52.456Z,13.13
2023-04-23T22:45:27.047Z,13.18
2023-04-23T22:47:59.388Z,13.22
2023-04-23T22:50:31.654Z,13.21
2023-04-23T22:53:04.275Z,13.24
2023-04-23T22:55:36.453Z,13.25
2023-04-23T22:58:08.972Z,13.24
2023-04-23T23:00:41.934Z,13.12
2023-04-23T23:03:14.422Z,13.00
2023-04-23T23:05:46.656Z,13.06
2023-04-23T23:08:19.105Z,13.05
2023-04-23T23:10:54.248Z,13.06
2023-04-23T23:13:26.403Z,13.00
2023-04-23T23:16:02.539Z,12.90
2023-04-23T23:18:34.651Z,13.00
2023-04-23T23:21:07.061Z,12.99
2023-04-23T23:23:39.424Z,12.95
2023-04-23T23:26:11.579Z,12.93
2023-04-23T23:28:43.694Z,12.93
2023-04-23T23:31:15.968Z,12.95
2023-04-23T23:33:48.183Z,12.82
2023-04-23T23:36:23.159Z,12.87
2023-04-23T23:38:55.506Z,12.91
2023-04-23T23:41:27.648Z,12.96
2023-04-23T23:43:59.837Z,13.08
2023-04-23T23:46:32.095Z,13.10
2023-04-23T23:49:04.303Z,13.11
2023-04-23T23:51:36.504Z,13.19
2023-04-23T23:54:08.846Z,13.16
2023-04-23T23:56:41.166Z,13.06
2023-04-23T23:59:13.581Z,13.05
